createdAt,value
2016-12-25T00:00:02.309Z,7.65
2016-12-25T00:05:02.652Z,7.7
2016-12-25T00:10:03.026Z,7.73
2016-12-25T00:15:02.380Z,7.73
2016-12-25T00:20:02.855Z,7.69
2016-12-25T00:25:02.277Z,7.73
2016-12-25T00:30:02.647Z,7.7
2016-12-25T00:35:03.009Z,7.69
2016-12-25T00:40:02.391Z,7.64
2016-12-25T00:45:02.777Z,7.57
2016-12-25T00:50:03.147Z,7.38
2016-12-25T00:55:02.471Z,7.18
2016-12-25T01:00:02.850Z,7.05
2016-12-25T01:05:02.247Z,6.91
2016-12-25T01:10:02.577Z,6.82
2016-12-25T01:15:02.959Z,6.74
2016-12-25T01:20:02.416Z,6.71
2016-12-25T01:25:02.806Z,6.73
2016-12-25T01:30:02.209Z,6.69
2016-12-25T01:35:02.554Z,6.72
2016-12-25T01:40:02.916Z,6.7
2016-12-25T01:45:02.245Z,6.69
2016-12-25T01:50:02.605Z,6.72
2016-12-25T01:55:03.000Z,6.78
2016-12-25T02:00:02.352Z,6.82
2016-12-25T02:05:02.667Z,6.9
2016-12-25T02:10:03.026Z,7
2016-12-25T02:15:02.339Z,7.02
2016-12-25T02:20:02.822Z,7.04
2016-12-25T02:25:02.208Z,7.04
2016-12-25T02:30:02.593Z,7.07
2016-12-25T02:35:02.938Z,7.1
2016-12-25T02:40:02.320Z,7.14
2016-12-25T02:45:02.654Z,7.13
2016-12-25T02:50:03.043Z,7.14
2016-12-25T02:55:02.396Z,7.17
2016-12-25T03:00:02.728Z,7.24
2016-12-25T03:05:03.102Z,7.27
2016-12-25T03:10:02.447Z,7.26
2016-12-25T03:15:02.834Z,7.2
2016-12-25T03:20:02.306Z,7.2
2016-12-25T03:25:02.709Z,7.26
2016-12-25T03:30:03.081Z,7.25
2016-12-25T03:35:02.417Z,7.29
2016-12-25T03:40:02.800Z,7.34
2016-12-25T03:45:02.194Z,7.43
2016-12-25T03:50:02.698Z,7.43
2016-12-25T03:55:03.044Z,7.44
2016-12-25T04:00:02.385Z,7.43
2016-12-25T04:05:02.740Z,7.41
2016-12-25T04:10:03.088Z,7.42
2016-12-25T04:15:02.415Z,7.45
2016-12-25T04:20:02.855Z,7.46
2016-12-25T04:25:02.239Z,7.43
2016-12-25T04:30:02.632Z,7.35
2016-12-25T04:35:02.989Z,7.4
2016-12-25T04:40:02.361Z,7.43
2016-12-25T04:45:02.705Z,7.47
2016-12-25T04:50:03.041Z,7.55
2016-12-25T04:55:02.399Z,7.57
2016-12-25T05:00:02.760Z,7.62
2016-12-25T05:05:03.071Z,7.67
2016-12-25T05:10:02.416Z,7.72
2016-12-25T05:15:02.747Z,7.75
2016-12-25T05:20:02.228Z,7.81
2016-12-25T05:25:02.645Z,7.84
2016-12-25T05:30:03.009Z,7.84
2016-12-25T05:35:02.317Z,7.78
2016-12-25T05:40:02.632Z,7.81
2016-12-25T05:45:02.917Z,7.81
2016-12-25T05:50:03.080Z,7.82
2016-12-25T05:55:02.405Z,7.87
2016-12-25T06:00:02.764Z,7.87
2016-12-25T06:05:03.101Z,7.91
2016-12-25T06:10:02.491Z,7.93
2016-12-25T06:15:02.851Z,7.92
2016-12-25T06:20:02.279Z,7.89
2016-12-25T06:25:02.633Z,7.84
2016-12-25T06:30:03.043Z,7.79
2016-12-25T06:35:02.399Z,7.76
2016-12-25T06:40:02.768Z,7.74
2016-12-25T06:45:03.117Z,7.74
2016-12-25T06:50:02.491Z,7.78
2016-12-25T06:55:02.837Z,7.81
2016-12-25T07:00:02.171Z,7.84
2016-12-25T07:05:03.957Z,7.89
2016-12-25T07:10:02.305Z,7.93
2016-12-25T07:15:02.755Z,8.01
2016-12-25T07:20:02.223Z,8.03
2016-12-25T07:25:02.603Z,8.03
2016-12-25T07:30:02.996Z,8.06
2016-12-25T07:35:02.381Z,8.06
2016-12-25T07:40:02.780Z,8.03
2016-12-25T07:45:03.181Z,7.99
2016-12-25T07:50:02.582Z,7.96
2016-12-25T07:55:03.018Z,7.96
2016-12-25T08:00:02.383Z,7.93
2016-12-25T08:05:02.789Z,7.92
2016-12-25T08:10:03.175Z,7.92
2016-12-25T08:15:02.548Z,7.92
2016-12-25T08:20:03.047Z,7.91
2016-12-25T08:25:02.426Z,7.89
2016-12-25T08:30:02.865Z,7.91
2016-12-25T08:35:02.282Z,7.93
2016-12-25T08:40:02.696Z,7.93
2016-12-25T08:45:03.125Z,7.97
2016-12-25T08:50:02.499Z,8
2016-12-25T08:55:02.883Z,8.04
2016-12-25T09:00:02.297Z,8.09
2016-12-25T09:05:02.681Z,8.13
2016-12-25T09:10:03.067Z,8.23
2016-12-25T09:15:02.442Z,8.32
2016-12-25T09:20:02.926Z,8.37
2016-12-25T09:25:02.369Z,8.42
2016-12-25T09:30:02.734Z,8.45
2016-12-25T09:35:03.146Z,8.44
2016-12-25T09:40:02.504Z,8.44
2016-12-25T09:45:02.895Z,8.46
2016-12-25T09:50:02.279Z,8.5
2016-12-25T09:55:02.731Z,8.49
2016-12-25T10:00:03.090Z,8.5
2016-12-25T10:05:02.491Z,8.57
2016-12-25T10:10:02.882Z,8.61
2016-12-25T10:15:02.254Z,8.64
2016-12-25T10:20:02.670Z,8.66
2016-12-25T10:25:03.051Z,8.7
2016-12-25T10:30:02.409Z,8.66
2016-12-25T10:35:02.779Z,8.58
2016-12-25T10:40:03.165Z,8.53
2016-12-25T10:45:02.501Z,8.55
2016-12-25T10:50:02.908Z,8.56
2016-12-25T10:55:02.250Z,8.55
2016-12-25T11:00:02.594Z,8.57
2016-12-25T11:05:03.034Z,8.59
2016-12-25T11:10:02.400Z,8.66
2016-12-25T11:15:02.785Z,8.74
2016-12-25T11:20:02.266Z,8.79
2016-12-25T11:25:02.645Z,8.77
2016-12-25T11:30:03.038Z,8.81
2016-12-25T11:35:02.357Z,8.85
2016-12-25T11:40:02.747Z,8.88
2016-12-25T11:45:03.090Z,8.91
2016-12-25T11:50:02.517Z,8.94
2016-12-25T11:55:02.880Z,8.93
2016-12-25T12:00:02.245Z,9
2016-12-25T12:05:02.639Z,9.04
2016-12-25T12:10:03.049Z,9.07
2016-12-25T12:15:02.392Z,9.06
2016-12-25T12:20:02.843Z,9.08
2016-12-25T12:25:02.240Z,9.08
2016-12-25T12:30:02.591Z,9.15
2016-12-25T12:35:03.005Z,9.25
2016-12-25T12:40:02.337Z,9.29
2016-12-25T12:45:02.706Z,9.33
2016-12-25T12:50:03.113Z,9.39
2016-12-25T12:55:02.458Z,9.46
2016-12-25T13:00:02.859Z,9.5
2016-12-25T13:05:02.227Z,9.5
2016-12-25T13:10:02.624Z,9.48
2016-12-25T13:15:02.995Z,9.47
2016-12-25T13:20:02.378Z,9.5
2016-12-25T13:25:02.723Z,9.49
2016-12-25T13:30:03.100Z,9.5
2016-12-25T13:35:02.451Z,9.54
2016-12-25T13:40:02.784Z,9.53
2016-12-25T13:45:03.145Z,9.55
2016-12-25T13:50:02.852Z,9.55
2016-12-25T13:55:02.207Z,9.51
2016-12-25T14:00:02.599Z,9.48
2016-12-25T14:05:02.989Z,9.4
2016-12-25T14:10:02.375Z,9.35
2016-12-25T14:15:02.762Z,9.32
2016-12-25T14:20:02.261Z,9.25
2016-12-25T14:25:02.676Z,9.21
2016-12-25T14:30:03.036Z,9.18
2016-12-25T14:35:02.388Z,9.2
2016-12-25T14:40:02.824Z,9.21
2016-12-25T14:45:02.199Z,9.24
2016-12-25T14:50:02.576Z,9.31
2016-12-25T14:55:03.006Z,9.34
2016-12-25T15:00:02.366Z,9.38
2016-12-25T15:05:02.784Z,9.41
2016-12-25T15:10:02.236Z,9.48
2016-12-25T15:15:02.582Z,9.51
2016-12-25T15:20:03.049Z,9.52
2016-12-25T15:25:02.430Z,9.5
2016-12-25T15:30:02.810Z,9.47
2016-12-25T15:35:02.235Z,9.4
2016-12-25T15:40:02.629Z,9.29
2016-12-25T15:45:02.976Z,9.18
2016-12-25T15:50:02.372Z,9.06
2016-12-25T15:55:02.729Z,9.01
2016-12-25T16:00:03.117Z,8.94
2016-12-25T16:05:02.474Z,8.91
2016-12-25T16:10:02.843Z,8.89
2016-12-25T16:15:02.194Z,8.88
2016-12-25T16:20:02.755Z,8.92
2016-12-25T16:25:03.080Z,8.93
2016-12-25T16:30:02.414Z,8.94
2016-12-25T16:35:02.877Z,8.96
2016-12-25T16:40:02.295Z,9
2016-12-25T16:45:02.655Z,9.03
2016-12-25T16:50:03.024Z,9.06
2016-12-25T16:55:02.383Z,9.1
2016-12-25T17:00:02.747Z,9.17
2016-12-25T17:05:03.098Z,9.19
2016-12-25T17:10:02.443Z,9.25
2016-12-25T17:15:02.801Z,9.31
2016-12-25T17:20:02.272Z,9.33
2016-12-25T17:25:02.656Z,9.38
2016-12-25T17:30:03.024Z,9.42
2016-12-25T17:35:02.383Z,9.42
2016-12-25T17:40:02.755Z,9.46
2016-12-25T17:45:03.075Z,9.44
2016-12-25T17:50:02.446Z,9.45
2016-12-25T17:55:02.760Z,9.41
2016-12-25T18:00:03.098Z,9.41
2016-12-25T18:05:02.459Z,9.4
2016-12-25T18:10:02.793Z,9.38
2016-12-25T18:15:03.168Z,9.4
2016-12-25T18:20:02.637Z,9.41
2016-12-25T18:25:02.974Z,9.41
2016-12-25T18:30:02.328Z,9.44
2016-12-25T18:35:02.664Z,9.42
2016-12-25T18:40:03.020Z,9.41
2016-12-25T18:45:02.343Z,9.42
2016-12-25T18:50:02.689Z,9.48
2016-12-25T18:55:03.061Z,9.54
2016-12-25T19:00:02.425Z,9.6
2016-12-25T19:05:02.842Z,9.63
2016-12-25T19:10:02.264Z,9.67
2016-12-25T19:15:02.662Z,9.69
2016-12-25T19:20:03.105Z,9.68
2016-12-25T19:25:02.396Z,9.72
2016-12-25T19:30:02.849Z,9.76
2016-12-25T19:35:02.253Z,9.77
2016-12-25T19:40:02.649Z,9.76
2016-12-25T19:45:03.029Z,9.76
2016-12-25T19:50:02.375Z,9.71
2016-12-25T19:55:02.706Z,9.68
2016-12-25T20:00:03.044Z,9.7
2016-12-25T20:05:02.362Z,9.67
2016-12-25T20:10:02.707Z,9.62
2016-12-25T20:15:03.051Z,9.57
2016-12-25T20:20:02.488Z,9.52
2016-12-25T20:25:02.842Z,9.48
2016-12-25T20:30:02.257Z,9.46
2016-12-25T20:35:02.603Z,9.41
2016-12-25T20:40:02.983Z,9.41
2016-12-25T20:45:02.324Z,9.42
2016-12-25T20:50:02.651Z,9.46
2016-12-25T20:55:03.009Z,9.5
2016-12-25T21:00:02.383Z,9.51
2016-12-25T21:05:02.764Z,9.54
2016-12-25T21:10:03.142Z,9.54
2016-12-25T21:15:02.495Z,9.59
2016-12-25T21:20:02.979Z,9.64
2016-12-25T21:25:02.337Z,9.69
2016-12-25T21:30:02.694Z,9.76
2016-12-25T21:35:03.048Z,9.81
2016-12-25T21:40:02.395Z,9.82
2016-12-25T21:45:02.787Z,9.84
2016-12-25T21:50:03.195Z,9.88
2016-12-25T21:55:02.592Z,9.94
2016-12-25T22:00:02.993Z,9.93
2016-12-25T22:05:02.374Z,9.92
2016-12-25T22:10:02.750Z,9.95
2016-12-25T22:15:03.091Z,10
2016-12-25T22:20:02.464Z,10.03
2016-12-25T22:25:02.813Z,10.04
2016-12-25T22:30:02.167Z,10.06
2016-12-25T22:35:02.506Z,10.08
2016-12-25T22:40:02.885Z,10.09
2016-12-25T22:45:02.285Z,10.11
2016-12-25T22:50:02.665Z,10.12
2016-12-25T22:55:03.016Z,10.11
2016-12-25T23:00:02.366Z,10.14
2016-12-25T23:05:02.740Z,10.14
2016-12-25T23:10:03.088Z,10.14
2016-12-25T23:15:02.427Z,10.14
2016-12-25T23:20:02.891Z,10.18
2016-12-25T23:25:02.268Z,10.18
2016-12-25T23:30:02.627Z,10.21
2016-12-25T23:35:03.012Z,10.22
2016-12-25T23:40:02.369Z,10.25
2016-12-25T23:45:02.736Z,10.3
2016-12-25T23:50:03.073Z,10.38
2016-12-25T23:55:02.401Z,10.36
